sensor_id;sensor_type;location;lat;lon;timestamp;P1;durP1;ratioP1;P2;durP2;ratioP2
55346;SDS011;41218;55.700;38.270;2022-07-29T00:05:51;2.42;;;1.90;;
55346;SDS011;41218;55.700;38.270;2022-07-29T00:10:53;2.15;;;1.58;;
55346;SDS011;41218;55.700;38.270;2022-07-29T00:15:53;3.25;;;1.58;;
55346;SDS011;41218;55.700;38.270;2022-07-29T00:20:54;2.17;;;1.80;;
55346;SDS011;41218;55.700;38.270;2022-07-29T00:25:54;3.50;;;2.00;;
55346;SDS011;41218;55.700;38.270;2022-07-29T00:30:55;3.35;;;1.90;;
55346;SDS011;41218;55.700;38.270;2022-07-29T00:35:56;4.35;;;1.95;;
55346;SDS011;41218;55.700;38.270;2022-07-29T00:40:56;3.75;;;2.15;;
55346;SDS011;41218;55.700;38.270;2022-07-29T00:45:57;2.80;;;1.90;;
55346;SDS011;41218;55.700;38.270;2022-07-29T00:55:59;2.67;;;1.98;;
55346;SDS011;41218;55.700;38.270;2022-07-29T01:01:00;3.85;;;1.83;;
55346;SDS011;41218;55.700;38.270;2022-07-29T01:11:01;3.53;;;2.00;;
55346;SDS011;41218;55.700;38.270;2022-07-29T01:16:04;2.28;;;2.05;;
55346;SDS011;41218;55.700;38.270;2022-07-29T01:26:22;1.90;;;1.67;;
55346;SDS011;41218;55.700;38.270;2022-07-29T01:37:14;1.88;;;1.77;;
55346;SDS011;41218;55.700;38.270;2022-07-29T01:47:49;4.82;;;1.77;;
55346;SDS011;41218;55.700;38.270;2022-07-29T01:53:06;2.28;;;1.88;;
55346;SDS011;41218;55.700;38.270;2022-07-29T01:58:10;3.45;;;1.98;;
55346;SDS011;41218;55.700;38.270;2022-07-29T02:03:13;2.47;;;1.83;;
55346;SDS011;41218;55.700;38.270;2022-07-29T02:08:17;3.45;;;1.80;;
55346;SDS011;41218;55.700;38.270;2022-07-29T02:13:19;2.08;;;1.70;;
55346;SDS011;41218;55.700;38.270;2022-07-29T02:18:23;1.60;;;1.50;;
55346;SDS011;41218;55.700;38.270;2022-07-29T02:23:28;1.90;;;1.60;;
55346;SDS011;41218;55.700;38.270;2022-07-29T02:28:30;3.38;;;1.58;;
55346;SDS011;41218;55.700;38.270;2022-07-29T02:33:32;2.38;;;1.70;;
55346;SDS011;41218;55.700;38.270;2022-07-29T02:38:34;1.90;;;1.67;;
55346;SDS011;41218;55.700;38.270;2022-07-29T02:43:53;2.20;;;1.50;;
55346;SDS011;41218;55.700;38.270;2022-07-29T02:48:58;2.58;;;1.60;;
55346;SDS011;41218;55.700;38.270;2022-07-29T02:54:05;3.42;;;1.70;;
55346;SDS011;41218;55.700;38.270;2022-07-29T02:59:09;2.88;;;1.80;;
55346;SDS011;41218;55.700;38.270;2022-07-29T03:04:11;2.67;;;1.90;;
55346;SDS011;41218;55.700;38.270;2022-07-29T03:09:14;2.30;;;1.52;;
55346;SDS011;41218;55.700;38.270;2022-07-29T03:24:24;2.33;;;1.90;;
55346;SDS011;41218;55.700;38.270;2022-07-29T03:29:32;2.85;;;1.55;;
55346;SDS011;41218;55.700;38.270;2022-07-29T03:39:35;3.30;;;1.57;;
55346;SDS011;41218;55.700;38.270;2022-07-29T03:44:40;3.83;;;1.88;;
55346;SDS011;41218;55.700;38.270;2022-07-29T03:49:44;3.30;;;1.85;;
55346;SDS011;41218;55.700;38.270;2022-07-29T03:54:48;3.10;;;2.17;;
55346;SDS011;41218;55.700;38.270;2022-07-29T04:04:59;6.00;;;2.40;;
55346;SDS011;41218;55.700;38.270;2022-07-29T04:15:01;5.77;;;4.10;;
55346;SDS011;41218;55.700;38.270;2022-07-29T04:20:05;6.97;;;3.45;;
55346;SDS011;41218;55.700;38.270;2022-07-29T04:25:06;7.15;;;4.00;;
55346;SDS011;41218;55.700;38.270;2022-07-29T04:30:07;6.63;;;3.80;;
55346;SDS011;41218;55.700;38.270;2022-07-29T04:40:08;4.60;;;2.40;;
55346;SDS011;41218;55.700;38.270;2022-07-29T04:50:09;2.03;;;1.73;;
55346;SDS011;41218;55.700;38.270;2022-07-29T05:00:11;4.00;;;1.97;;
55346;SDS011;41218;55.700;38.270;2022-07-29T05:10:12;1.70;;;1.40;;
55346;SDS011;41218;55.700;38.270;2022-07-29T05:20:13;2.47;;;1.90;;
55346;SDS011;41218;55.700;38.270;2022-07-29T05:30:14;2.53;;;2.10;;
55346;SDS011;41218;55.700;38.270;2022-07-29T05:40:15;1.57;;;1.30;;
55346;SDS011;41218;55.700;38.270;2022-07-29T05:50:16;3.40;;;1.57;;
55346;SDS011;41218;55.700;38.270;2022-07-29T06:05:28;4.20;;;1.20;;
55346;SDS011;41218;55.700;38.270;2022-07-29T06:10:28;2.88;;;1.10;;
55346;SDS011;41218;55.700;38.270;2022-07-29T06:15:29;3.10;;;1.13;;
55346;SDS011;41218;55.700;38.270;2022-07-29T06:20:30;2.03;;;1.15;;
55346;SDS011;41218;55.700;38.270;2022-07-29T06:25:31;1.92;;;0.98;;
55346;SDS011;41218;55.700;38.270;2022-07-29T06:30:36;2.25;;;1.27;;
55346;SDS011;41218;55.700;38.270;2022-07-29T06:35:37;2.50;;;1.35;;
55346;SDS011;41218;55.700;38.270;2022-07-29T06:40:45;2.15;;;1.17;;
55346;SDS011;41218;55.700;38.270;2022-07-29T06:46:02;1.45;;;1.33;;
55346;SDS011;41218;55.700;38.270;2022-07-29T06:51:05;2.42;;;1.30;;
55346;SDS011;41218;55.700;38.270;2022-07-29T06:56:06;1.30;;;1.20;;
55346;SDS011;41218;55.700;38.270;2022-07-29T07:01:10;1.60;;;1.08;;
55346;SDS011;41218;55.700;38.270;2022-07-29T07:06:10;3.08;;;1.23;;
55346;SDS011;41218;55.700;38.270;2022-07-29T07:11:11;2.72;;;1.10;;
55346;SDS011;41218;55.700;38.270;2022-07-29T07:16:12;1.30;;;1.10;;
55346;SDS011;41218;55.700;38.270;2022-07-29T07:21:12;1.38;;;1.23;;
55346;SDS011;41218;55.700;38.270;2022-07-29T07:26:13;1.85;;;1.10;;
55346;SDS011;41218;55.700;38.270;2022-07-29T07:31:14;1.23;;;1.10;;
55346;SDS011;41218;55.700;38.270;2022-07-29T07:36:14;2.80;;;1.30;;
55346;SDS011;41218;55.700;38.270;2022-07-29T07:41:15;3.33;;;1.20;;
55346;SDS011;41218;55.700;38.270;2022-07-29T07:46:15;1.50;;;1.40;;
55346;SDS011;41218;55.700;38.270;2022-07-29T07:51:16;2.40;;;1.30;;
55346;SDS011;41218;55.700;38.270;2022-07-29T07:56:17;3.42;;;1.50;;
55346;SDS011;41218;55.700;38.270;2022-07-29T08:01:17;2.42;;;1.50;;
55346;SDS011;41218;55.700;38.270;2022-07-29T08:06:19;2.33;;;1.20;;
55346;SDS011;41218;55.700;38.270;2022-07-29T08:11:20;1.52;;;1.27;;
55346;SDS011;41218;55.700;38.270;2022-07-29T08:16:21;1.85;;;1.48;;
55346;SDS011;41218;55.700;38.270;2022-07-29T08:21:22;2.33;;;1.20;;
55346;SDS011;41218;55.700;38.270;2022-07-29T08:26:23;1.23;;;1.13;;
55346;SDS011;41218;55.700;38.270;2022-07-29T08:31:24;3.25;;;1.13;;
55346;SDS011;41218;55.700;38.270;2022-07-29T08:36:25;3.38;;;1.25;;
55346;SDS011;41218;55.700;38.270;2022-07-29T08:41:26;1.30;;;0.93;;
55346;SDS011;41218;55.700;38.270;2022-07-29T08:46:27;4.05;;;1.00;;
55346;SDS011;41218;55.700;38.270;2022-07-29T08:51:28;3.88;;;1.00;;
55346;SDS011;41218;55.700;38.270;2022-07-29T08:56:30;0.85;;;0.80;;
55346;SDS011;41218;55.700;38.270;2022-07-29T09:01:31;0.98;;;0.88;;
55346;SDS011;41218;55.700;38.270;2022-07-29T09:12:11;2.58;;;0.90;;
55346;SDS011;41218;55.700;38.270;2022-07-29T09:17:13;0.90;;;0.80;;
55346;SDS011;41218;55.700;38.270;2022-07-29T09:22:27;0.90;;;0.90;;
55346;SDS011;41218;55.700;38.270;2022-07-29T09:27:30;1.33;;;0.77;;
55346;SDS011;41218;55.700;38.270;2022-07-29T09:32:31;2.70;;;0.90;;
55346;SDS011;41218;55.700;38.270;2022-07-29T09:37:32;2.20;;;1.00;;
55346;SDS011;41218;55.700;38.270;2022-07-29T09:42:33;3.83;;;1.30;;
55346;SDS011;41218;55.700;38.270;2022-07-29T09:47:40;1.80;;;1.20;;
55346;SDS011;41218;55.700;38.270;2022-07-29T09:52:46;1.35;;;1.00;;
55346;SDS011;41218;55.700;38.270;2022-07-29T09:57:50;1.27;;;0.98;;
55346;SDS011;41218;55.700;38.270;2022-07-29T10:02:50;1.00;;;0.90;;
55346;SDS011;41218;55.700;38.270;2022-07-29T10:07:52;1.45;;;1.10;;
55346;SDS011;41218;55.700;38.270;2022-07-29T10:29:24;2.40;;;1.15;;
55346;SDS011;41218;55.700;38.270;2022-07-29T10:44:51;1.80;;;1.00;;
55346;SDS011;41218;55.700;38.270;2022-07-29T10:49:59;2.28;;;1.30;;
55346;SDS011;41218;55.700;38.270;2022-07-29T10:55:01;1.98;;;1.20;;
55346;SDS011;41218;55.700;38.270;2022-07-29T11:05:18;1.58;;;1.10;;
55346;SDS011;41218;55.700;38.270;2022-07-29T11:10:21;1.10;;;1.00;;
55346;SDS011;41218;55.700;38.270;2022-07-29T11:20:35;2.92;;;0.93;;
55346;SDS011;41218;55.700;38.270;2022-07-29T11:25:36;1.48;;;1.15;;
55346;SDS011;41218;55.700;38.270;2022-07-29T11:30:50;1.33;;;1.10;;
55346;SDS011;41218;55.700;38.270;2022-07-29T11:36:09;1.50;;;1.05;;
55346;SDS011;41218;55.700;38.270;2022-07-29T11:51:53;1.08;;;1.00;;
55346;SDS011;41218;55.700;38.270;2022-07-29T11:56:55;1.00;;;1.00;;
55346;SDS011;41218;55.700;38.270;2022-07-29T12:01:58;2.13;;;1.00;;
55346;SDS011;41218;55.700;38.270;2022-07-29T12:07:00;1.10;;;1.00;;
55346;SDS011;41218;55.700;38.270;2022-07-29T12:12:00;1.42;;;0.88;;
55346;SDS011;41218;55.700;38.270;2022-07-29T12:17:01;1.00;;;0.90;;
55346;SDS011;41218;55.700;38.270;2022-07-29T12:22:01;0.93;;;0.80;;
55346;SDS011;41218;55.700;38.270;2022-07-29T12:27:02;2.67;;;0.95;;
55346;SDS011;41218;55.700;38.270;2022-07-29T12:32:03;1.77;;;0.85;;
55346;SDS011;41218;55.700;38.270;2022-07-29T12:37:06;1.70;;;0.93;;
55346;SDS011;41218;55.700;38.270;2022-07-29T12:42:13;3.10;;;1.00;;
55346;SDS011;41218;55.700;38.270;2022-07-29T12:47:15;1.00;;;0.90;;
55346;SDS011;41218;55.700;38.270;2022-07-29T12:57:30;1.23;;;0.93;;
55346;SDS011;41218;55.700;38.270;2022-07-29T13:02:32;3.60;;;1.05;;
55346;SDS011;41218;55.700;38.270;2022-07-29T13:07:32;1.38;;;0.98;;
55346;SDS011;41218;55.700;38.270;2022-07-29T13:12:36;1.27;;;0.90;;
55346;SDS011;41218;55.700;38.270;2022-07-29T13:17:40;2.33;;;1.15;;
55346;SDS011;41218;55.700;38.270;2022-07-29T13:22:46;2.95;;;0.90;;
55346;SDS011;41218;55.700;38.270;2022-07-29T13:27:47;1.67;;;1.00;;
55346;SDS011;41218;55.700;38.270;2022-07-29T13:32:48;0.88;;;0.85;;
55346;SDS011;41218;55.700;38.270;2022-07-29T13:37:50;2.00;;;1.10;;
55346;SDS011;41218;55.700;38.270;2022-07-29T13:42:50;3.05;;;1.27;;
55346;SDS011;41218;55.700;38.270;2022-07-29T13:47:51;3.17;;;1.00;;
55346;SDS011;41218;55.700;38.270;2022-07-29T13:52:52;1.30;;;1.20;;
55346;SDS011;41218;55.700;38.270;2022-07-29T13:57:52;2.25;;;1.10;;
55346;SDS011;41218;55.700;38.270;2022-07-29T14:02:53;1.73;;;1.23;;
55346;SDS011;41218;55.700;38.270;2022-07-29T14:07:54;1.90;;;1.15;;
55346;SDS011;41218;55.700;38.270;2022-07-29T14:12:54;1.77;;;1.05;;
55346;SDS011;41218;55.700;38.270;2022-07-29T14:17:55;1.73;;;0.90;;
55346;SDS011;41218;55.700;38.270;2022-07-29T14:22:56;1.33;;;0.88;;
55346;SDS011;41218;55.700;38.270;2022-07-29T14:27:56;1.65;;;1.20;;
55346;SDS011;41218;55.700;38.270;2022-07-29T14:32:57;1.88;;;1.05;;
55346;SDS011;41218;55.700;38.270;2022-07-29T14:37:57;1.23;;;1.10;;
55346;SDS011;41218;55.700;38.270;2022-07-29T14:42:58;1.00;;;0.90;;
55346;SDS011;41218;55.700;38.270;2022-07-29T14:47:59;4.70;;;1.45;;
55346;SDS011;41218;55.700;38.270;2022-07-29T14:53:00;1.15;;;1.05;;
55346;SDS011;41218;55.700;38.270;2022-07-29T14:58:01;1.45;;;1.17;;
55346;SDS011;41218;55.700;38.270;2022-07-29T15:03:01;3.63;;;1.40;;
55346;SDS011;41218;55.700;38.270;2022-07-29T15:08:02;4.72;;;1.27;;
55346;SDS011;41218;55.700;38.270;2022-07-29T15:13:03;3.20;;;1.15;;
55346;SDS011;41218;55.700;38.270;2022-07-29T15:18:04;1.48;;;1.20;;
55346;SDS011;41218;55.700;38.270;2022-07-29T15:23:04;2.28;;;1.10;;
55346;SDS011;41218;55.700;38.270;2022-07-29T15:28:05;2.50;;;1.20;;
55346;SDS011;41218;55.700;38.270;2022-07-29T15:33:08;1.67;;;1.27;;
55346;SDS011;41218;55.700;38.270;2022-07-29T15:38:09;1.50;;;1.40;;
55346;SDS011;41218;55.700;38.270;2022-07-29T15:43:10;1.48;;;1.30;;
55346;SDS011;41218;55.700;38.270;2022-07-29T15:48:10;4.55;;;1.08;;
55346;SDS011;41218;55.700;38.270;2022-07-29T15:53:11;2.33;;;1.30;;
55346;SDS011;41218;55.700;38.270;2022-07-29T15:58:11;2.60;;;1.30;;
55346;SDS011;41218;55.700;38.270;2022-07-29T16:03:12;1.70;;;1.40;;
55346;SDS011;41218;55.700;38.270;2022-07-29T16:08:13;1.48;;;1.23;;
55346;SDS011;41218;55.700;38.270;2022-07-29T16:13:13;1.58;;;1.30;;
55346;SDS011;41218;55.700;38.270;2022-07-29T16:18:14;2.47;;;1.20;;
55346;SDS011;41218;55.700;38.270;2022-07-29T16:34:30;5.28;;;3.95;;
55346;SDS011;41218;55.700;38.270;2022-07-29T16:39:31;9.65;;;5.88;;
55346;SDS011;41218;55.700;38.270;2022-07-29T16:44:32;7.53;;;5.18;;
55346;SDS011;41218;55.700;38.270;2022-07-29T16:49:33;8.38;;;5.30;;
55346;SDS011;41218;55.700;38.270;2022-07-29T16:54:33;8.50;;;5.85;;
55346;SDS011;41218;55.700;38.270;2022-07-29T16:59:34;10.52;;;7.32;;
55346;SDS011;41218;55.700;38.270;2022-07-29T17:04:34;16.73;;;9.30;;
55346;SDS011;41218;55.700;38.270;2022-07-29T17:09:35;11.32;;;2.33;;
55346;SDS011;41218;55.700;38.270;2022-07-29T17:14:36;4.85;;;2.47;;
55346;SDS011;41218;55.700;38.270;2022-07-29T17:19:36;3.80;;;1.85;;
55346;SDS011;41218;55.700;38.270;2022-07-29T17:24:38;4.72;;;1.33;;
55346;SDS011;41218;55.700;38.270;2022-07-29T17:34:55;1.83;;;1.20;;
55346;SDS011;41218;55.700;38.270;2022-07-29T17:39:56;2.20;;;1.50;;
55346;SDS011;41218;55.700;38.270;2022-07-29T17:44:57;1.80;;;1.40;;
55346;SDS011;41218;55.700;38.270;2022-07-29T17:49:57;2.67;;;1.40;;
55346;SDS011;41218;55.700;38.270;2022-07-29T17:54:58;2.30;;;1.23;;
55346;SDS011;41218;55.700;38.270;2022-07-29T17:59:58;4.13;;;1.60;;
55346;SDS011;41218;55.700;38.270;2022-07-29T18:04:59;3.63;;;1.27;;
55346;SDS011;41218;55.700;38.270;2022-07-29T18:09:59;3.92;;;1.40;;
55346;SDS011;41218;55.700;38.270;2022-07-29T18:15:00;2.45;;;1.30;;
55346;SDS011;41218;55.700;38.270;2022-07-29T18:20:01;1.88;;;1.35;;
55346;SDS011;41218;55.700;38.270;2022-07-29T18:25:01;3.72;;;1.48;;
55346;SDS011;41218;55.700;38.270;2022-07-29T18:30:03;2.30;;;1.55;;
55346;SDS011;41218;55.700;38.270;2022-07-29T18:35:04;3.15;;;1.80;;
55346;SDS011;41218;55.700;38.270;2022-07-29T18:40:06;2.33;;;1.60;;
55346;SDS011;41218;55.700;38.270;2022-07-29T18:45:07;2.13;;;1.58;;
55346;SDS011;41218;55.700;38.270;2022-07-29T18:50:08;1.67;;;1.48;;
55346;SDS011;41218;55.700;38.270;2022-07-29T18:55:10;2.75;;;1.58;;
55346;SDS011;41218;55.700;38.270;2022-07-29T19:00:11;2.65;;;1.35;;
55346;SDS011;41218;55.700;38.270;2022-07-29T19:05:12;2.60;;;1.60;;
55346;SDS011;41218;55.700;38.270;2022-07-29T19:10:12;2.03;;;1.50;;
55346;SDS011;41218;55.700;38.270;2022-07-29T19:15:13;2.30;;;1.55;;
55346;SDS011;41218;55.700;38.270;2022-07-29T19:20:14;4.90;;;2.10;;
55346;SDS011;41218;55.700;38.270;2022-07-29T19:25:14;1.63;;;1.52;;
55346;SDS011;41218;55.700;38.270;2022-07-29T19:30:15;3.50;;;1.85;;
55346;SDS011;41218;55.700;38.270;2022-07-29T19:35:15;2.88;;;1.88;;
55346;SDS011;41218;55.700;38.270;2022-07-29T19:40:31;3.92;;;2.10;;
55346;SDS011;41218;55.700;38.270;2022-07-29T19:45:32;2.90;;;2.00;;
55346;SDS011;41218;55.700;38.270;2022-07-29T19:50:33;4.28;;;2.10;;
55346;SDS011;41218;55.700;38.270;2022-07-29T19:55:34;3.40;;;2.08;;
55346;SDS011;41218;55.700;38.270;2022-07-29T20:00:34;3.78;;;2.17;;
55346;SDS011;41218;55.700;38.270;2022-07-29T20:05:35;2.10;;;1.90;;
55346;SDS011;41218;55.700;38.270;2022-07-29T20:10:36;3.10;;;2.15;;
55346;SDS011;41218;55.700;38.270;2022-07-29T20:15:37;3.67;;;2.17;;
55346;SDS011;41218;55.700;38.270;2022-07-29T20:20:38;2.92;;;2.17;;
55346;SDS011;41218;55.700;38.270;2022-07-29T20:30:39;3.47;;;2.00;;
55346;SDS011;41218;55.700;38.270;2022-07-29T20:47:08;3.17;;;2.20;;
55346;SDS011;41218;55.700;38.270;2022-07-29T20:52:09;3.75;;;1.88;;
55346;SDS011;41218;55.700;38.270;2022-07-29T21:02:10;3.87;;;2.00;;
55346;SDS011;41218;55.700;38.270;2022-07-29T21:12:11;6.80;;;2.00;;
55346;SDS011;41218;55.700;38.270;2022-07-29T21:17:13;4.15;;;2.13;;
55346;SDS011;41218;55.700;38.270;2022-07-29T21:22:14;4.38;;;2.20;;
55346;SDS011;41218;55.700;38.270;2022-07-29T21:27:20;2.88;;;1.95;;
55346;SDS011;41218;55.700;38.270;2022-07-29T21:32:39;4.35;;;2.60;;
55346;SDS011;41218;55.700;38.270;2022-07-29T21:42:50;2.65;;;2.08;;
55346;SDS011;41218;55.700;38.270;2022-07-29T21:52:51;6.37;;;2.50;;
55346;SDS011;41218;55.700;38.270;2022-07-29T22:02:53;6.03;;;2.33;;
55346;SDS011;41218;55.700;38.270;2022-07-29T22:07:54;2.90;;;2.00;;
55346;SDS011;41218;55.700;38.270;2022-07-29T22:17:57;2.95;;;1.83;;
55346;SDS011;41218;55.700;38.270;2022-07-29T22:22:58;4.43;;;2.05;;
55346;SDS011;41218;55.700;38.270;2022-07-29T22:32:59;4.20;;;2.30;;
55346;SDS011;41218;55.700;38.270;2022-07-29T22:43:00;3.17;;;1.83;;
55346;SDS011;41218;55.700;38.270;2022-07-29T22:53:01;2.60;;;2.00;;
55346;SDS011;41218;55.700;38.270;2022-07-29T23:03:02;2.80;;;1.93;;
55346;SDS011;41218;55.700;38.270;2022-07-29T23:08:02;3.03;;;1.95;;
55346;SDS011;41218;55.700;38.270;2022-07-29T23:13:03;4.05;;;2.03;;
55346;SDS011;41218;55.700;38.270;2022-07-29T23:18:04;2.80;;;1.75;;
55346;SDS011;41218;55.700;38.270;2022-07-29T23:23:04;2.20;;;1.80;;
55346;SDS011;41218;55.700;38.270;2022-07-29T23:33:05;3.43;;;2.10;;
55346;SDS011;41218;55.700;38.270;2022-07-29T23:38:06;3.88;;;1.92;;
55346;SDS011;41218;55.700;38.270;2022-07-29T23:43:06;3.40;;;1.85;;
55346;SDS011;41218;55.700;38.270;2022-07-29T23:48:07;2.65;;;2.00;;
55346;SDS011;41218;55.700;38.270;2022-07-29T23:53:07;2.55;;;1.90;;
55346;SDS011;41218;55.700;38.270;2022-07-29T23:58:08;3.05;;;1.90;;
